Time;durP1;ratioP1;P1;durP2;ratioP2;P2;SDS_P1;SDS_P2;PMS_P1;PMS_P2;Temp;Humidity;BMP_temperature;BMP_pressure;BME280_temperature;BME280_humidity;BME280_pressure;Samples;Min_cycle;Max_cycle;Signal;HPM_P1;HPM_P2
2021/04/22 00:00:28;;;;;;;7.10;6.50;;;8.10;29.70;;;;;;5071992;28;20318;-70
2021/04/22 00:02:53;;;;;;;8.27;7.47;;;8.10;30.40;;;;;;5072230;28;20706;-70
2021/04/22 00:05:23;;;;;;;8.43;7.63;;;8.10;30.40;;;;;;5072368;28;20177;-70
2021/04/22 00:07:49;;;;;;;6.40;5.80;;;8.20;30.40;;;;;;5072431;28;20638;-70
2021/04/22 00:10:17;;;;;;;11.00;8.00;;;8.20;30.40;;;;;;5062051;28;20423;-70
2021/04/22 00:12:42;;;;;;;7.73;7.03;;;8.20;30.20;;;;;;5052217;28;20503;-71
2021/04/22 00:15:17;;;;;;;9.13;7.67;;;8.10;30.40;;;;;;5052183;28;20417;-70
2021/04/22 00:17:47;;;;;;;8.20;7.40;;;8.10;30.40;;;;;;5052064;28;20197;-71
2021/04/22 00:20:15;;;;;;;8.40;7.37;;;8.10;30.40;;;;;;5051619;28;20474;-70
2021/04/22 00:22:41;;;;;;;8.67;7.97;;;8.00;30.30;;;;;;5066874;28;20517;-71
2021/04/22 00:25:08;;;;;;;10.13;8.37;;;8.00;30.30;;;;;;5070116;28;20430;-71
2021/04/22 00:27:34;;;;;;;7.20;6.60;;;8.00;30.20;;;;;;5061020;28;20427;-70
2021/04/22 00:30:00;;;;;;;11.80;8.70;;;8.00;31.10;;;;;;5050157;28;20417;-70
2021/04/22 00:32:25;;;;;;;9.70;8.90;;;7.90;30.80;;;;;;5051602;28;20461;-71
2021/04/22 00:34:51;;;;;;;12.20;8.43;;;7.80;31.50;;;;;;5067045;28;20824;-71
2021/04/22 00:37:16;;;;;;;8.30;7.40;;;7.80;31.90;;;;;;5071619;28;20682;-71
2021/04/22 00:39:42;;;;;;;9.20;7.53;;;7.70;32.20;;;;;;5071795;28;20498;-71
2021/04/22 00:42:07;;;;;;;9.67;8.77;;;7.70;32.50;;;;;;5071668;28;20277;-71
2021/04/22 00:44:33;;;;;;;7.80;7.00;;;7.70;32.80;;;;;;5072039;28;20275;-70
2021/04/22 00:46:59;;;;;;;9.07;8.13;;;;;;;;;;5067409;28;20192;-71
2021/04/22 00:49:26;;;;;;;7.50;6.80;;;7.70;32.10;;;;;;5071311;28;20174;-70
2021/04/22 00:51:53;;;;;;;9.60;6.73;;;7.60;32.70;;;;;;5072083;28;20647;-71
2021/04/22 00:54:19;;;;;;;8.33;7.63;;;7.60;32.90;;;;;;5071760;28;20466;-71
2021/04/22 00:56:45;;;;;;;10.00;8.13;;;7.60;33.00;;;;;;5056881;28;20485;-71
2021/04/22 00:59:11;;;;;;;8.07;7.37;;;7.50;33.00;;;;;;5051168;28;20181;-71
2021/04/22 01:01:37;;;;;;;10.55;6.88;;;7.50;33.20;;;;;;5050368;28;20614;-71
2021/04/22 01:04:03;;;;;;;7.93;7.13;;;7.40;33.30;;;;;;5056023;28;20193;-71
2021/04/22 01:06:29;;;;;;;9.10;8.30;;;7.40;33.50;;;;;;5071741;28;20635;-71
2021/04/22 01:08:55;;;;;;;15.27;8.47;;;7.40;33.30;;;;;;5069673;28;20418;-71
2021/04/22 01:11:28;;;;;;;11.33;8.43;;;7.40;33.40;;;;;;5070096;28;20419;-71
2021/04/22 01:13:54;;;;;;;9.53;8.00;;;7.40;33.60;;;;;;5068217;28;20624;-71
2021/04/22 01:16:19;;;;;;;8.20;7.50;;;7.30;33.80;;;;;;5052732;28;20519;-71
2021/04/22 01:18:45;;;;;;;8.73;7.90;;;7.40;34.30;;;;;;5051048;28;20227;-70
2021/04/22 01:21:23;;;;;;;8.13;7.37;;;7.40;33.40;;;;;;5051306;28;20544;-71
2021/04/22 01:23:50;;;;;;;7.22;6.63;;;7.40;34.80;;;;;;5051280;28;20602;-71
2021/04/22 01:26:19;;;;;;;8.43;7.73;;;7.30;34.00;;;;;;5058934;28;20193;-70
2021/04/22 01:28:45;;;;;;;8.48;7.68;;;7.20;34.20;;;;;;5068919;28;20428;-71
2021/04/22 01:31:10;;;;;;;9.57;7.30;;;7.10;34.70;;;;;;5071346;28;20179;-71
2021/04/22 01:33:36;;;;;;;9.17;8.37;;;7.00;34.70;;;;;;5071025;28;20622;-70
2021/04/22 01:36:02;;;;;;;9.67;7.40;;;7.00;34.60;;;;;;5071316;28;20251;-71
2021/04/22 01:38:28;;;;;;;8.33;7.30;;;7.00;34.90;;;;;;5059648;28;20191;-71
2021/04/22 01:40:55;;;;;;;10.95;7.55;;;6.90;35.20;;;;;;5050460;28;20421;-71
2021/04/22 01:43:20;;;;;;;8.73;7.93;;;6.90;35.20;;;;;;5050714;28;20579;-71
2021/04/22 01:45:46;;;;;;;8.87;7.90;;;6.80;35.40;;;;;;5051239;28;20178;-71
2021/04/22 01:48:11;;;;;;;8.40;7.50;;;6.80;36.00;;;;;;5050088;28;20180;-71
2021/04/22 01:50:38;;;;;;;7.60;7.00;;;6.80;36.30;;;;;;5061249;28;20590;-71
2021/04/22 01:53:05;;;;;;;7.82;7.13;;;6.80;36.00;;;;;;5071105;28;20672;-71
2021/04/22 01:55:37;;;;;;;9.68;7.53;;;6.80;36.30;;;;;;5070979;28;20178;-71
2021/04/22 01:58:04;;;;;;;8.43;7.63;;;6.90;36.10;;;;;;5067127;28;20183;-71
2021/04/22 02:00:36;;;;;;;7.65;7.05;;;6.90;35.90;;;;;;5049113;28;20191;-71
2021/04/22 02:03:03;;;;;;;6.28;5.68;;;6.90;35.50;;;;;;5050678;28;20208;-71
2021/04/22 02:05:29;;;;;;;9.13;6.43;;;7.00;35.10;;;;;;5050687;28;20172;-71
2021/04/22 02:07:54;;;;;;;13.57;8.43;;;7.10;34.70;;;;;;5052710;28;20197;-70
2021/04/22 02:10:20;;;;;;;6.70;6.10;;;7.10;34.40;;;;;;5074131;28;20641;-72
2021/04/22 02:12:47;;;;;;;8.73;7.40;;;7.10;34.40;;;;;;5074782;28;20200;-71
2021/04/22 02:15:17;;;;;;;8.20;7.28;;;7.00;34.30;;;;;;5074680;28;20440;-71
2021/04/22 02:17:44;;;;;;;8.38;7.57;;;6.90;34.50;;;;;;5073287;28;20215;-71
2021/04/22 02:20:11;;;;;;;9.25;8.43;;;6.80;34.50;;;;;;5068734;28;20221;-71
2021/04/22 02:22:37;;;;;;;8.57;7.80;;;6.80;34.60;;;;;;5053178;28;20250;-72
2021/04/22 02:25:09;;;;;;;8.75;7.80;;;6.80;34.90;;;;;;5054416;28;20656;-72
2021/04/22 02:27:36;;;;;;;9.43;7.35;;;6.70;35.10;;;;;;5055754;28;20187;-71
2021/04/22 02:30:07;;;;;;;7.80;7.20;;;6.70;35.20;;;;;;5053885;28;20187;-71
2021/04/22 02:32:32;;;;;;;10.68;9.50;;;6.70;35.40;;;;;;5054256;28;20189;-72
2021/04/22 02:34:58;;;;;;;8.13;7.33;;;6.70;35.60;;;;;;5053116;28;20764;-71
2021/04/22 02:37:23;;;;;;;12.37;9.30;;;6.70;35.90;;;;;;5067552;28;20195;-71
2021/04/22 02:39:49;;;;;;;9.87;8.70;;;6.70;35.90;;;;;;5073708;28;20185;-71
2021/04/22 02:42:14;;;;;;;12.27;11.17;;;6.80;36.00;;;;;;5074036;28;20282;-70
2021/04/22 02:44:40;;;;;;;12.27;11.27;;;6.80;35.80;;;;;;5074146;28;20199;-72
2021/04/22 02:47:06;;;;;;;12.00;9.57;;;6.90;35.50;;;;;;5073167;28;20577;-71
2021/04/22 02:49:31;;;;;;;12.80;10.17;;;7.00;35.20;;;;;;5057660;28;20204;-71
2021/04/22 02:51:57;;;;;;;12.77;9.93;;;7.00;35.00;;;;;;5054039;28;20230;-71
2021/04/22 02:54:22;;;;;;;9.97;8.97;;;7.00;34.90;;;;;;5070285;28;20212;-71
2021/04/22 02:56:48;;;;;;;10.87;8.80;;;7.00;34.80;;;;;;5073976;28;20180;-71
2021/04/22 02:59:13;;;;;;;9.70;8.77;;;7.00;35.00;;;;;;5073323;28;20179;-72
2021/04/22 03:01:39;;;;;;;14.57;8.70;;;7.00;34.10;;;;;;5073747;28;20207;-72
2021/04/22 03:04:05;;;;;;;9.73;7.97;;;7.00;34.70;;;;;;5059178;28;20800;-71
2021/04/22 03:06:30;;;;;;;9.67;8.63;;;6.90;34.50;;;;;;5053900;28;20179;-72
2021/04/22 03:08:56;;;;;;;11.47;9.20;;;6.90;34.50;;;;;;5051565;28;20784;-71
2021/04/22 03:11:21;;;;;;;9.20;8.10;;;6.90;34.50;;;;;;5052181;28;20180;-72
2021/04/22 03:13:47;;;;;;;15.53;8.80;;;6.90;34.50;;;;;;5064743;28;20206;-71
2021/04/22 03:16:12;;;;;;;10.10;9.00;;;6.90;34.50;;;;;;5073754;28;20252;-71
2021/04/22 03:18:38;;;;;;;8.90;8.03;;;6.90;34.50;;;;;;5073223;28;20194;-71
2021/04/22 03:21:04;;;;;;;8.70;7.80;;;6.90;34.50;;;;;;5071634;28;20169;-72
2021/04/22 03:23:29;;;;;;;9.37;8.37;;;7.00;34.60;;;;;;5073066;28;20203;-72
2021/04/22 03:25:55;;;;;;;10.37;9.37;;;7.00;34.70;;;;;;5057905;28;20180;-72
2021/04/22 03:28:20;;;;;;;9.03;7.97;;;7.00;34.60;;;;;;5053173;28;20181;-71
2021/04/22 03:30:46;;;;;;;8.77;7.60;;;7.00;34.60;;;;;;5052708;28;20183;-72
2021/04/22 03:33:12;;;;;;;11.83;9.87;;;7.00;34.70;;;;;;5058442;28;20250;-72
2021/04/22 03:35:37;;;;;;;10.53;8.67;;;7.00;34.60;;;;;;5073216;28;20208;-72
2021/04/22 03:38:03;;;;;;;9.83;8.67;;;7.00;34.60;;;;;;5073653;28;20876;-71
2021/04/22 03:40:29;;;;;;;9.23;8.33;;;7.00;35.00;;;;;;5072470;28;20208;-71
2021/04/22 03:42:55;;;;;;;12.00;10.20;;;7.10;34.80;;;;;;5067936;28;20215;-71
2021/04/22 03:45:22;;;;;;;12.38;10.75;;;7.20;34.80;;;;;;5053127;28;20182;-71
2021/04/22 03:47:48;;;;;;;9.97;9.03;;;7.30;34.70;;;;;;5053095;28;20539;-71
2021/04/22 03:50:16;;;;;;;10.60;9.63;;;7.30;34.30;;;;;;5051130;28;20421;-72
2021/04/22 03:52:43;;;;;;;9.63;8.80;;;7.40;34.20;;;;;;5052659;28;20467;-71
2021/04/22 03:55:09;;;;;;;10.30;9.30;;;7.40;33.90;;;;;;5055591;28;20431;-71
2021/04/22 03:57:35;;;;;;;9.23;8.43;;;7.50;33.70;;;;;;5072559;28;20408;-71
2021/04/22 04:00:03;;;;;;;11.23;9.33;;;7.50;33.30;;;;;;5070695;28;20565;-71
2021/04/22 04:02:28;;;;;;;11.70;8.53;;;7.50;33.30;;;;;;5071117;28;20270;-72
2021/04/22 04:04:54;;;;;;;9.07;8.20;;;7.40;33.70;;;;;;5070988;28;20451;-72
2021/04/22 04:07:20;;;;;;;11.27;8.23;;;7.40;33.70;;;;;;5064608;28;20738;-72
2021/04/22 04:09:45;;;;;;;9.13;8.33;;;7.30;34.00;;;;;;5051811;28;20177;-71
2021/04/22 04:12:11;;;;;;;12.43;8.20;;;7.30;34.50;;;;;;5051047;28;20185;-72
2021/04/22 04:14:37;;;;;;;11.77;10.30;;;7.20;34.50;;;;;;5052320;28;20580;-72
2021/04/22 04:17:03;;;;;;;10.10;9.07;;;7.20;34.80;;;;;;5052603;28;20190;-71
2021/04/22 04:19:28;;;;;;;10.40;8.35;;;7.20;34.80;;;;;;5059812;28;20793;-71
2021/04/22 04:21:54;;;;;;;9.40;8.70;;;7.20;34.90;;;;;;5072113;28;20204;-72
2021/04/22 04:24:19;;;;;;;10.37;9.30;;;7.20;34.90;;;;;;5072103;28;20229;-71
2021/04/22 04:26:45;;;;;;;11.83;10.63;;;7.20;34.80;;;;;;5072174;28;20176;-72
2021/04/22 04:29:11;;;;;;;11.33;9.87;;;7.20;34.80;;;;;;5071543;28;20209;-71
2021/04/22 04:31:36;;;;;;;9.97;9.03;;;7.10;34.70;;;;;;5058785;28;20960;-71
2021/04/22 04:34:02;;;;;;;10.53;9.60;;;7.10;34.70;;;;;;5067359;22;20697;-71
2021/04/22 04:36:29;;;;;;;10.43;9.10;;;7.10;34.70;;;;;;5058426;28;20258;-69
2021/04/22 04:38:55;;;;;;;10.33;9.33;;;7.20;34.80;;;;;;5056432;28;20583;-70
2021/04/22 04:41:21;;;;;;;9.03;7.63;;;7.20;34.80;;;;;;5056448;28;20441;-70
2021/04/22 04:43:46;;;;;;;11.70;9.90;;;7.30;34.90;;;;;;5054288;28;20201;-70
2021/04/22 04:46:17;;;;;;;12.37;9.07;;;7.30;34.90;;;;;;5054826;28;20420;-69
2021/04/22 04:48:44;;;;;;;20.90;11.38;;;7.40;34.90;;;;;;5055536;28;20213;-68
2021/04/22 04:51:10;;;;;;;8.93;7.70;;;7.40;35.20;;;;;;5055512;28;20180;-70
2021/04/22 04:53:36;;;;;;;9.83;8.30;;;7.40;34.50;;;;;;5055910;28;20922;-70
2021/04/22 04:56:01;;;;;;;10.23;9.10;;;7.40;34.60;;;;;;5041522;28;20210;-71
2021/04/22 04:58:27;;;;;;;12.57;10.40;;;7.40;34.30;;;;;;5034682;28;20182;-70
2021/04/22 05:00:52;;;;;;;13.93;9.37;;;7.50;34.50;;;;;;5035151;28;20666;-70
2021/04/22 05:03:18;;;;;;;12.87;10.77;;;7.50;34.40;;;;;;5035000;28;20215;-70
2021/04/22 05:05:43;;;;;;;11.93;10.60;;;7.60;34.20;;;;;;5035474;28;20182;-70
2021/04/22 05:08:09;;;;;;;10.77;9.73;;;7.70;33.80;;;;;;5052770;28;20264;-70
2021/04/22 05:10:35;;;;;;;9.53;8.13;;;7.90;33.80;;;;;;5053983;28;20196;-70
2021/04/22 05:13:00;;;;;;;17.93;11.77;;;8.00;32.50;;;;;;5055213;28;20343;-71
2021/04/22 05:15:26;;;;;;;12.30;10.07;;;8.00;32.10;;;;;;5055302;28;20525;-71
2021/04/22 05:17:51;;;;;;;11.40;10.30;;;8.20;31.80;;;;;;5055110;28;20181;-70
2021/04/22 05:20:17;;;;;;;11.40;10.37;;;8.20;31.60;;;;;;5035624;28;20219;-69
2021/04/22 05:22:43;;;;;;;11.17;9.73;;;8.20;31.70;;;;;;5036122;28;20222;-69
2021/04/22 05:25:09;;;;;;;12.07;10.87;;;8.20;31.70;;;;;;5036219;28;20262;-70
2021/04/22 05:27:35;;;;;;;11.90;8.43;;;8.40;31.30;;;;;;5035602;28;20254;-70
2021/04/22 05:30:01;;;;;;;11.50;10.30;;;8.60;30.80;;;;;;5036461;28;20456;-70
2021/04/22 05:32:26;;;;;;;10.10;9.20;;;8.80;30.20;;;;;;5056200;28;20178;-70
2021/04/22 05:34:52;;;;;;;10.97;9.87;;;9.00;30.00;;;;;;5056522;28;20452;-70
2021/04/22 05:37:19;;;;;;;11.23;10.13;;;9.20;29.80;;;;;;5058538;28;20183;-70
2021/04/22 05:39:44;;;;;;;11.33;10.27;;;9.60;29.60;;;;;;5058521;28;20784;-71
2021/04/22 05:42:10;;;;;;;12.53;11.43;;;;;;;;;;5051250;28;20459;-72
2021/04/22 05:44:36;;;;;;;11.20;10.20;;;10.40;25.70;;;;;;5031806;28;20191;-71
2021/04/22 05:47:02;;;;;;;16.63;8.90;;;10.70;25.10;;;;;;5027691;28;20479;-69
2021/04/22 05:49:27;;;;;;;11.13;10.10;;;11.00;24.50;;;;;;5020900;28;20187;-70
2021/04/22 05:51:54;;;;;;;10.87;9.97;;;11.20;23.40;;;;;;5034967;28;20775;-70
2021/04/22 05:54:19;;;;;;;14.43;12.20;;;11.60;23.70;;;;;;5040291;28;20222;-70
2021/04/22 05:56:45;;;;;;;12.10;11.10;;;12.00;22.50;;;;;;5053285;28;20513;-71
2021/04/22 05:59:11;;;;;;;15.20;13.70;;;12.20;21.60;;;;;;5053251;28;20177;-70
2021/04/22 06:01:37;;;;;;;22.17;13.17;;;12.00;22.10;;;;;;5054009;28;20465;-70
2021/04/22 06:04:03;;;;;;;17.13;15.33;;;11.80;22.40;;;;;;5055150;28;20205;-70
2021/04/22 06:06:28;;;;;;;13.90;12.40;;;11.60;23.70;;;;;;5050875;28;20677;-69
2021/04/22 06:08:54;;;;;;;13.57;12.60;;;11.40;23.60;;;;;;5056270;28;20416;-70
2021/04/22 06:11:20;;;;;;;18.23;16.63;;;11.30;23.50;;;;;;5057079;28;20576;-70
2021/04/22 06:13:45;;;;;;;15.50;13.03;;;11.20;23.40;;;;;;5056629;28;20265;-70
2021/04/22 06:16:11;;;;;;;14.80;13.43;;;11.10;24.60;;;;;;5056142;28;20189;-70
2021/04/22 06:18:36;;;;;;;13.27;12.00;;;11.00;25.40;;;;;;5051074;28;20548;-70
2021/04/22 06:21:02;;;;;;;16.50;15.10;;;11.10;25.60;;;;;;5034954;28;20185;-70
2021/04/22 06:23:28;;;;;;;18.17;16.40;;;11.10;26.90;;;;;;5040483;28;20215;-70
2021/04/22 06:25:54;;;;;;;14.50;13.00;;;11.20;27.10;;;;;;5036542;28;20451;-70
2021/04/22 06:28:21;;;;;;;17.17;15.57;;;11.30;27.70;;;;;;5034990;28;20614;-69
2021/04/22 06:30:46;;;;;;;14.47;13.27;;;11.20;26.90;;;;;;5033873;28;20418;-70
2021/04/22 06:33:12;;;;;;;15.73;14.23;;;11.20;26.90;;;;;;5034646;28;20454;-70
2021/04/22 06:35:37;;;;;;;15.43;14.23;;;11.20;27.00;;;;;;5033368;28;20182;-71
2021/04/22 06:38:04;;;;;;;14.27;12.90;;;11.20;27.60;;;;;;5032890;28;20231;-70
2021/04/22 06:40:30;;;;;;;16.90;13.13;;;11.20;27.90;;;;;;5031725;28;20180;-71
2021/04/22 06:42:55;;;;;;;19.13;17.13;;;11.30;27.60;;;;;;5032914;28;20469;-71
2021/04/22 06:45:22;;;;;;;17.03;15.47;;;11.30;27.70;;;;;;5031698;28;20199;-70
2021/04/22 06:47:47;;;;;;;20.63;14.10;;;11.50;27.80;;;;;;5034630;28;20192;-69
2021/04/22 06:50:15;;;;;;;18.27;16.27;;;11.60;27.80;;;;;;5027895;28;20428;-71
2021/04/22 06:52:41;;;;;;;18.17;16.27;;;11.70;27.00;;;;;;5029814;28;20193;-70
2021/04/22 06:55:12;;;;;;;16.80;15.37;;;12.10;26.10;;;;;;5031145;28;20438;-69
2021/04/22 06:57:38;;;;;;;24.03;16.90;;;12.40;24.20;;;;;;5034055;28;20180;-70
2021/04/22 07:00:15;;;;;;;18.53;16.87;;;12.40;24.10;;;;;;5052822;28;20481;-69
2021/04/22 07:02:41;;;;;;;18.07;15.87;;;12.20;24.10;;;;;;5040584;28;20225;-70
2021/04/22 07:05:08;;;;;;;20.87;18.97;;;12.10;24.00;;;;;;5052833;28;20427;-71
2021/04/22 07:07:34;;;;;;;21.23;17.63;;;12.00;24.00;;;;;;5045891;28;20173;-70
2021/04/22 07:10:00;;;;;;;18.40;16.60;;;11.80;24.20;;;;;;5032359;28;20414;-70
2021/04/22 07:12:26;;;;;;;23.13;18.00;;;11.90;24.50;;;;;;5031037;28;20437;-70
2021/04/22 07:14:52;;;;;;;23.10;16.63;;;11.80;24.20;;;;;;5032627;28;20439;-70
2021/04/22 07:17:18;;;;;;;23.47;19.30;;;11.60;24.90;;;;;;5043184;28;20821;-69
2021/04/22 07:19:43;;;;;;;30.80;18.20;;;11.60;25.30;;;;;;5030663;28;20186;-70
2021/04/22 07:22:09;;;;;;;19.67;17.73;;;11.50;25.70;;;;;;5026617;28;20461;-70
2021/04/22 07:24:37;;;;;;;25.07;19.10;;;11.70;26.00;;;;;;5032110;28;20275;-70
2021/04/22 07:27:04;;;;;;;19.10;17.20;;;12.20;25.40;;;;;;5032678;28;20370;-70
2021/04/22 07:29:30;;;;;;;23.63;20.27;;;12.40;24.20;;;;;;5037427;28;20962;-70
2021/04/22 07:31:55;;;;;;;16.40;14.70;;;12.30;24.40;;;;;;5033438;28;20428;-71
2021/04/22 07:34:21;;;;;;;44.67;23.60;;;12.20;24.10;;;;;;5033003;28;20245;-70
2021/04/22 07:36:46;;;;;;;22.80;17.57;;;11.90;24.30;;;;;;5032147;28;20655;-71
2021/04/22 07:39:12;;;;;;;22.20;18.90;;;11.70;24.80;;;;;;5043238;28;20435;-70
2021/04/22 07:41:37;;;;;;;17.97;16.10;;;11.50;25.50;;;;;;5031495;28;20210;-70
2021/04/22 07:44:04;;;;;;;18.07;16.37;;;11.40;25.60;;;;;;5032454;28;20202;-70
2021/04/22 07:46:29;;;;;;;23.63;19.00;;;11.60;26.10;;;;;;5028650;28;20232;-70
2021/04/22 07:48:55;;;;;;;22.23;20.10;;;11.90;24.80;;;;;;5040019;28;20833;-70
2021/04/22 07:51:20;;;;;;;42.43;20.83;;;12.00;24.70;;;;;;5048720;28;20174;-70
2021/04/22 07:53:46;;;;;;;22.57;20.03;;;12.00;24.40;;;;;;5032009;28;20221;-70
2021/04/22 07:56:12;;;;;;;22.53;18.53;;;11.90;24.70;;;;;;5032665;28;20373;-70
2021/04/22 07:58:37;;;;;;;27.57;21.87;;;11.80;25.30;;;;;;5030042;28;20710;-70
2021/04/22 08:01:03;;;;;;;19.60;17.50;;;11.70;25.10;;;;;;5031789;28;20259;-70
2021/04/22 08:03:29;;;;;;;20.43;16.77;;;11.40;25.20;;;;;;5032291;28;20223;-71
2021/04/22 08:05:55;;;;;;;20.37;18.43;;;11.00;26.60;;;;;;5025188;28;20431;-70
2021/04/22 08:08:23;;;;;;;22.10;20.00;;;10.80;26.80;;;;;;5022543;28;20430;-70
2021/04/22 08:10:49;;;;;;;60.60;21.80;;;10.70;27.20;;;;;;5049615;28;20413;-70
2021/04/22 08:13:17;;;;;;;19.80;17.83;;;10.70;27.20;;;;;;5032326;28;20702;-70
2021/04/22 08:15:46;;;;;;;29.53;19.87;;;10.60;27.20;;;;;;5031106;28;20416;-70
2021/04/22 08:18:13;;;;;;;21.80;17.63;;;10.40;27.70;;;;;;5013686;28;20525;-70
2021/04/22 08:20:40;;;;;;;46.60;25.07;;;10.40;27.80;;;;;;5031424;28;20510;-70
2021/04/22 08:23:08;;;;;;;20.97;17.60;;;10.60;27.70;;;;;;5029572;28;20467;-70
2021/04/22 08:25:39;;;;;;;25.57;22.93;;;10.80;27.30;;;;;;5031520;28;20788;-70
2021/04/22 08:28:08;;;;;;;21.03;19.07;;;10.90;26.80;;;;;;5033004;28;20864;-71
2021/04/22 08:30:44;;;;;;;22.97;20.77;;;11.00;26.50;;;;;;5049327;28;20425;-71
2021/04/22 08:33:13;;;;;;;25.33;20.80;;;11.10;26.50;;;;;;5050552;28;20832;-70
2021/04/22 08:35:39;;;;;;;24.67;21.80;;;11.20;25.90;;;;;;5050988;28;20781;-69
2021/04/22 08:38:05;;;;;;;23.50;21.20;;;11.40;25.80;;;;;;5047922;28;20418;-70
2021/04/22 08:40:31;;;;;;;21.50;19.40;;;11.60;24.70;;;;;;5030959;28;20435;-70
2021/04/22 08:42:57;;;;;;;24.93;22.40;;;11.70;24.10;;;;;;5030834;28;20246;-70
2021/04/22 08:45:24;;;;;;;24.93;22.43;;;12.00;24.30;;;;;;5031425;28;20189;-70
2021/04/22 08:47:50;;;;;;;29.20;26.30;;;12.10;23.00;;;;;;5031323;28;20545;-70
2021/04/22 08:50:22;;;;;;;25.13;22.97;;;12.00;23.40;;;;;;5031665;28;20520;-70
2021/04/22 08:52:50;;;;;;;26.00;23.47;;;12.00;23.60;;;;;;5030775;28;20420;-70
2021/04/22 08:55:19;;;;;;;25.70;23.10;;;12.20;22.70;;;;;;5030535;28;20784;-69
2021/04/22 08:57:44;;;;;;;27.53;25.00;;;12.30;22.30;;;;;;5031250;28;20425;-71
2021/04/22 09:00:13;;;;;;;24.13;22.00;;;12.30;22.30;;;;;;5032862;28;20432;-72
2021/04/22 09:02:39;;;;;;;27.27;24.37;;;12.30;22.10;;;;;;5028500;28;20218;-71
2021/04/22 09:05:05;;;;;;;27.83;25.03;;;12.30;22.30;;;;;;5031575;28;20857;-70
2021/04/22 09:07:31;;;;;;;29.77;22.60;;;12.30;22.20;;;;;;5031947;28;20274;-70
2021/04/22 09:09:57;;;;;;;27.77;25.13;;;12.40;22.20;;;;;;5044907;28;20497;-70
2021/04/22 09:12:22;;;;;;;24.10;21.93;;;12.40;22.20;;;;;;5051594;28;20245;-71
2021/04/22 09:14:59;;;;;;;22.20;20.17;;;12.30;22.40;;;;;;5052993;28;20204;-71
2021/04/22 09:17:26;;;;;;;21.53;19.17;;;12.00;22.60;;;;;;5053274;28;20190;-71
2021/04/22 09:19:53;;;;;;;22.47;20.33;;;11.70;23.80;;;;;;5038247;28;20852;-70
2021/04/22 09:22:19;;;;;;;22.33;20.33;;;11.70;23.50;;;;;;5032540;28;20496;-70
2021/04/22 09:24:45;;;;;;;20.20;18.10;;;11.60;23.70;;;;;;5029990;28;20519;-70
2021/04/22 09:27:14;;;;;;;22.53;20.30;;;11.70;23.50;;;;;;5029878;28;20453;-70
2021/04/22 09:29:45;;;;;;;24.33;20.17;;;11.70;23.50;;;;;;5034160;28;21002;-70
2021/04/22 09:32:14;;;;;;;21.80;19.60;;;11.60;23.40;;;;;;5034314;28;20427;-71
2021/04/22 09:34:47;;;;;;;23.00;18.30;;;11.70;23.50;;;;;;5030874;28;20835;-70
2021/04/22 09:37:13;;;;;;;33.57;20.90;;;11.90;23.10;;;;;;5032851;28;20427;-70
2021/04/22 09:39:38;;;;;;;25.77;17.13;;;12.00;22.60;;;;;;5034049;28;20432;-70
2021/04/22 09:42:11;;;;;;;19.63;18.03;;;12.00;22.40;;;;;;5031074;28;20191;-70
2021/04/22 09:44:38;;;;;;;22.60;20.30;;;12.00;22.40;;;;;;5033077;28;20201;-72
2021/04/22 09:47:15;;;;;;;18.93;17.20;;;12.00;22.30;;;;;;5032031;28;20442;-71
2021/04/22 09:49:51;;;;;;;23.07;20.87;;;11.80;22.20;;;;;;5044004;28;20932;-71
2021/04/22 09:52:19;;;;;;;22.50;20.60;;;11.90;22.20;;;;;;5039374;28;20443;-70
2021/04/22 09:54:52;;;;;;;24.60;22.20;;;12.00;21.90;;;;;;5033045;28;20437;-70
2021/04/22 09:57:28;;;;;;;31.53;19.53;;;12.30;21.20;;;;;;5021443;28;20429;-70
2021/04/22 09:59:55;;;;;;;21.43;19.40;;;12.50;21.00;;;;;;5011816;28;20428;-71
2021/04/22 10:02:22;;;;;;;21.80;19.77;;;12.50;21.00;;;;;;5045421;28;20467;-70
2021/04/22 10:04:50;;;;;;;21.63;19.43;;;12.30;20.70;;;;;;5053000;28;20440;-71
2021/04/22 10:07:30;;;;;;;26.10;23.23;;;12.50;20.70;;;;;;5053201;28;20412;-71
2021/04/22 10:10:12;;;;;;;24.33;22.10;;;12.90;20.30;;;;;;5052231;28;20819;-71
2021/04/22 10:12:37;;;;;;;23.20;20.90;;;13.20;18.90;;;;;;5035029;28;20430;-71
2021/04/22 10:15:31;;;;;;;20.83;19.07;;;13.50;18.90;;;;;;5030468;28;20931;-71
2021/04/22 10:18:01;;;;;;;25.43;22.87;;;13.60;18.00;;;;;;5030966;28;20279;-69
2021/04/22 10:20:28;;;;;;;25.10;22.67;;;13.30;18.20;;;;;;5029448;28;20418;-72
2021/04/22 10:22:54;;;;;;;20.93;19.27;;;13.50;18.60;;;;;;5048778;28;20518;-71
2021/04/22 10:25:26;;;;;;;21.83;19.90;;;13.30;18.70;;;;;;5037442;28;20837;-70
2021/04/22 10:27:52;;;;;;;23.50;21.60;;;13.10;19.10;;;;;;5012498;28;20184;-71
2021/04/22 10:30:21;;;;;;;20.60;18.80;;;13.50;18.70;;;;;;5013688;28;20426;-71
2021/04/22 10:32:48;;;;;;;22.67;21.03;;;13.70;17.90;;;;;;5050740;28;20431;-71
2021/04/22 10:35:17;;;;;;;24.60;22.30;;;13.70;17.50;;;;;;5043502;22;20930;-73
2021/04/22 10:37:44;;;;;;;21.83;20.00;;;13.60;17.90;;;;;;5013926;28;20423;-71
2021/04/22 10:40:12;;;;;;;25.83;23.53;;;13.70;17.40;;;;;;5021410;28;20937;-71
2021/04/22 10:42:38;;;;;;;23.77;21.40;;;13.70;17.70;;;;;;5039957;28;20539;-72
2021/04/22 10:45:07;;;;;;;27.63;25.00;;;13.80;17.20;;;;;;5033717;28;20450;-71
2021/04/22 10:47:33;;;;;;;22.60;20.47;;;13.90;17.50;;;;;;5045019;28;20463;-71
2021/04/22 10:49:59;;;;;;;24.73;22.37;;;14.00;17.10;;;;;;5053673;28;20452;-71
2021/04/22 10:52:25;;;;;;;23.20;21.13;;;14.30;16.80;;;;;;5045391;28;20432;-72
2021/04/22 10:54:52;;;;;;;23.60;21.57;;;14.30;16.60;;;;;;5033956;28;20435;-71
2021/04/22 10:57:20;;;;;;;21.37;19.77;;;14.40;16.00;;;;;;5032978;28;20407;-71
2021/04/22 10:59:47;;;;;;;21.77;20.07;;;14.40;15.80;;;;;;5033370;28;20468;-72
2021/04/22 11:02:17;;;;;;;24.70;22.97;;;14.50;15.60;;;;;;5033675;28;20485;-72
2021/04/22 11:04:44;;;;;;;23.63;21.63;;;14.50;16.20;;;;;;5033449;28;20934;-72
2021/04/22 11:07:21;;;;;;;25.57;22.90;;;14.80;16.20;;;;;;5034080;28;20511;-72
2021/04/22 11:09:49;;;;;;;26.20;24.37;;;15.20;15.10;;;;;;5031952;28;20426;-72
2021/04/22 11:12:23;;;;;;;29.17;26.67;;;15.40;14.70;;;;;;5033635;28;20475;-72
2021/04/22 11:14:52;;;;;;;25.93;24.13;;;15.40;14.40;;;;;;5033747;28;20965;-72
2021/04/22 11:17:21;;;;;;;26.90;24.50;;;15.50;14.20;;;;;;5033799;28;20417;-72
2021/04/22 11:19:49;;;;;;;24.20;22.40;;;15.50;14.30;;;;;;5033202;28;20413;-71
2021/04/22 11:22:19;;;;;;;26.07;23.83;;;15.50;13.90;;;;;;5033389;28;20484;-71
2021/04/22 11:24:55;;;;;;;27.10;24.83;;;15.50;18.60;;;;;;5033530;28;20951;-72
2021/04/22 11:27:22;;;;;;;27.77;25.37;;;15.30;12.90;;;;;;5033538;28;20870;-71
2021/04/22 11:29:56;;;;;;;26.80;24.40;;;15.30;14.10;;;;;;5032958;28;20923;-71
2021/04/22 11:32:28;;;;;;;24.27;22.47;;;15.30;14.00;;;;;;5032005;28;20507;-72
2021/04/22 11:35:18;;;;;;;25.53;23.33;;;15.20;14.50;;;;;;5032897;28;20456;-72
2021/04/22 11:37:48;;;;;;;25.60;23.60;;;15.30;15.00;;;;;;5033769;28;20505;-71
2021/04/22 11:40:21;;;;;;;25.50;23.53;;;15.40;14.80;;;;;;5033020;28;20500;-72
2021/04/22 11:42:49;;;;;;;26.37;24.17;;;15.50;14.40;;;;;;5031116;28;20988;-72
2021/04/22 11:45:20;;;;;;;26.00;23.83;;;15.80;14.70;;;;;;5032812;28;20441;-72
2021/04/22 11:47:57;;;;;;;25.60;23.90;;;15.80;13.60;;;;;;5031934;28;20926;-72
2021/04/22 11:50:30;;;;;;;25.93;23.63;;;15.90;13.70;;;;;;5011666;28;20426;-72
2021/04/22 11:53:01;;;;;;;26.30;23.57;;;16.30;14.00;;;;;;5013401;28;20419;-72
2021/04/22 11:55:27;;;;;;;23.93;21.93;;;16.60;13.80;;;;;;5016777;28;20468;-72
2021/04/22 11:58:08;;;;;;;30.63;25.23;;;16.60;13.40;;;;;;5032885;28;20425;-72
2021/04/22 12:00:43;;;;;;;28.63;26.40;;;16.70;12.80;;;;;;5033051;28;20781;-72
2021/04/22 12:03:11;;;;;;;25.23;22.97;;;16.40;12.70;;;;;;5031548;28;20463;-71
2021/04/22 12:05:38;;;;;;;26.73;24.70;;;16.30;13.20;;;;;;5032729;28;20433;-72
2021/04/22 12:08:05;;;;;;;25.70;23.80;;;16.40;14.10;;;;;;5032852;28;20414;-72
2021/04/22 12:10:34;;;;;;;27.23;25.30;;;16.50;12.90;;;;;;5032310;28;20503;-72
2021/04/22 12:13:08;;;;;;;27.33;25.30;;;16.50;12.50;;;;;;5032456;28;20445;-71
2021/04/22 12:15:35;;;;;;;26.97;23.50;;;;;;;;;;5037211;28;20817;-71
2021/04/22 12:18:01;;;;;;;27.27;25.13;;;;;;;;;;5052238;28;20416;-72
2021/04/22 12:20:27;;;;;;;25.97;23.93;;;;;;;;;;5031364;28;20438;-72
2021/04/22 12:22:53;;;;;;;27.83;25.73;;;;;;;;;;5012690;28;20472;-72
2021/04/22 12:25:21;;;;;;;24.47;22.90;;;;;;;;;;5016220;28;20434;-71
2021/04/22 12:27:51;;;;;;;24.00;22.30;;;;;;;;;;5035597;28;20993;-71
2021/04/22 12:30:19;;;;;;;23.23;21.57;;;;;;;;;;5040920;28;20420;-72
2021/04/22 12:32:53;;;;;;;24.80;23.20;;;;;;;;;;5043294;28;20511;-72
2021/04/22 12:35:20;;;;;;;26.30;24.27;;;;;;;;;;5031004;28;20464;-75
2021/04/22 12:37:46;;;;;;;25.10;23.37;;;;;;;;;;5039844;28;20442;-74
2021/04/22 12:40:13;;;;;;;24.47;22.90;;;15.90;12.40;;;;;;5044405;28;20422;-74